sensor_id;sensor_type;location;lat;lon;timestamp;P1;durP1;ratioP1;P2;durP2;ratioP2
72649;SDS011;61467;50.674;4.618;2023-02-13T00:01:11;52.05;;;21.48;;
72649;SDS011;61467;50.674;4.618;2023-02-13T00:03:38;52.45;;;21.70;;
72649;SDS011;61467;50.674;4.618;2023-02-13T00:06:05;55.23;;;22.73;;
72649;SDS011;61467;50.674;4.618;2023-02-13T00:08:32;56.88;;;22.73;;
72649;SDS011;61467;50.674;4.618;2023-02-13T00:10:59;48.50;;;21.10;;
72649;SDS011;61467;50.674;4.618;2023-02-13T00:13:25;48.22;;;20.90;;
72649;SDS011;61467;50.674;4.618;2023-02-13T00:15:57;46.97;;;20.45;;
72649;SDS011;61467;50.674;4.618;2023-02-13T00:18:25;49.10;;;20.10;;
72649;SDS011;61467;50.674;4.618;2023-02-13T00:20:56;43.78;;;19.98;;
72649;SDS011;61467;50.674;4.618;2023-02-13T00:23:24;46.30;;;20.85;;
72649;SDS011;61467;50.674;4.618;2023-02-13T00:25:52;52.25;;;22.05;;
72649;SDS011;61467;50.674;4.618;2023-02-13T00:28:19;47.75;;;20.65;;
72649;SDS011;61467;50.674;4.618;2023-02-13T00:30:45;47.60;;;20.33;;
72649;SDS011;61467;50.674;4.618;2023-02-13T00:33:14;44.25;;;19.63;;
72649;SDS011;61467;50.674;4.618;2023-02-13T00:35:40;40.38;;;17.95;;
72649;SDS011;61467;50.674;4.618;2023-02-13T00:38:07;38.95;;;17.38;;
72649;SDS011;61467;50.674;4.618;2023-02-13T00:40:34;39.08;;;18.33;;
72649;SDS011;61467;50.674;4.618;2023-02-13T00:43:01;35.13;;;17.53;;
72649;SDS011;61467;50.674;4.618;2023-02-13T00:45:28;37.83;;;16.90;;
72649;SDS011;61467;50.674;4.618;2023-02-13T00:47:54;37.60;;;16.67;;
72649;SDS011;61467;50.674;4.618;2023-02-13T00:50:23;37.85;;;17.13;;
72649;SDS011;61467;50.674;4.618;2023-02-13T00:52:49;39.75;;;17.67;;
72649;SDS011;61467;50.674;4.618;2023-02-13T00:55:16;35.97;;;16.63;;
72649;SDS011;61467;50.674;4.618;2023-02-13T00:57:43;34.28;;;15.70;;
72649;SDS011;61467;50.674;4.618;2023-02-13T01:00:10;33.45;;;16.85;;
72649;SDS011;61467;50.674;4.618;2023-02-13T01:02:38;30.30;;;15.23;;
72649;SDS011;61467;50.674;4.618;2023-02-13T01:05:07;34.13;;;15.95;;
72649;SDS011;61467;50.674;4.618;2023-02-13T01:07:36;34.17;;;15.23;;
72649;SDS011;61467;50.674;4.618;2023-02-13T01:10:02;34.83;;;15.60;;
72649;SDS011;61467;50.674;4.618;2023-02-13T01:12:30;30.50;;;14.75;;
72649;SDS011;61467;50.674;4.618;2023-02-13T01:14:56;31.80;;;15.05;;
72649;SDS011;61467;50.674;4.618;2023-02-13T01:17:23;28.85;;;14.07;;
72649;SDS011;61467;50.674;4.618;2023-02-13T01:19:50;29.00;;;14.03;;
72649;SDS011;61467;50.674;4.618;2023-02-13T01:22:17;26.45;;;13.23;;
72649;SDS011;61467;50.674;4.618;2023-02-13T01:24:45;26.92;;;13.95;;
72649;SDS011;61467;50.674;4.618;2023-02-13T01:27:12;26.38;;;13.90;;
72649;SDS011;61467;50.674;4.618;2023-02-13T01:29:39;27.77;;;13.77;;
72649;SDS011;61467;50.674;4.618;2023-02-13T01:32:05;25.53;;;13.90;;
72649;SDS011;61467;50.674;4.618;2023-02-13T01:34:32;24.92;;;13.32;;
72649;SDS011;61467;50.674;4.618;2023-02-13T01:36:59;26.15;;;13.48;;
72649;SDS011;61467;50.674;4.618;2023-02-13T01:39:27;23.65;;;12.90;;
72649;SDS011;61467;50.674;4.618;2023-02-13T01:41:56;25.38;;;13.27;;
72649;SDS011;61467;50.674;4.618;2023-02-13T01:47:13;26.02;;;12.68;;
72649;SDS011;61467;50.674;4.618;2023-02-13T01:49:42;26.52;;;13.80;;
72649;SDS011;61467;50.674;4.618;2023-02-13T01:52:12;24.90;;;13.20;;
72649;SDS011;61467;50.674;4.618;2023-02-13T01:54:40;25.25;;;13.30;;
72649;SDS011;61467;50.674;4.618;2023-02-13T01:57:09;26.13;;;12.70;;
72649;SDS011;61467;50.674;4.618;2023-02-13T01:59:40;27.70;;;14.05;;
72649;SDS011;61467;50.674;4.618;2023-02-13T02:02:13;28.15;;;14.15;;
72649;SDS011;61467;50.674;4.618;2023-02-13T02:04:40;26.70;;;13.20;;
72649;SDS011;61467;50.674;4.618;2023-02-13T02:07:10;27.83;;;13.90;;
72649;SDS011;61467;50.674;4.618;2023-02-13T02:09:44;25.00;;;12.40;;
72649;SDS011;61467;50.674;4.618;2023-02-13T02:12:13;32.05;;;14.75;;
72649;SDS011;61467;50.674;4.618;2023-02-13T02:14:47;27.42;;;13.98;;
72649;SDS011;61467;50.674;4.618;2023-02-13T02:17:15;26.50;;;12.98;;
72649;SDS011;61467;50.674;4.618;2023-02-13T02:19:43;29.05;;;13.63;;
72649;SDS011;61467;50.674;4.618;2023-02-13T02:22:21;26.83;;;13.10;;
72649;SDS011;61467;50.674;4.618;2023-02-13T02:28:12;35.47;;;17.40;;
72649;SDS011;61467;50.674;4.618;2023-02-13T02:31:08;31.83;;;15.65;;
72649;SDS011;61467;50.674;4.618;2023-02-13T02:34:08;28.42;;;13.63;;
72649;SDS011;61467;50.674;4.618;2023-02-13T02:36:45;29.10;;;14.00;;
72649;SDS011;61467;50.674;4.618;2023-02-13T02:39:25;29.20;;;13.25;;
72649;SDS011;61467;50.674;4.618;2023-02-13T02:42:06;27.88;;;14.35;;
72649;SDS011;61467;50.674;4.618;2023-02-13T02:44:44;30.67;;;13.82;;
72649;SDS011;61467;50.674;4.618;2023-02-13T02:47:21;29.20;;;13.90;;
72649;SDS011;61467;50.674;4.618;2023-02-13T02:50:13;25.37;;;11.97;;
72649;SDS011;61467;50.674;4.618;2023-02-13T02:52:54;25.27;;;12.20;;
72649;SDS011;61467;50.674;4.618;2023-02-13T02:55:31;23.40;;;11.75;;
72649;SDS011;61467;50.674;4.618;2023-02-13T02:58:05;24.40;;;12.15;;
72649;SDS011;61467;50.674;4.618;2023-02-13T03:00:50;24.85;;;11.65;;
72649;SDS011;61467;50.674;4.618;2023-02-13T03:03:36;23.77;;;11.53;;
72649;SDS011;61467;50.674;4.618;2023-02-13T03:06:23;25.20;;;12.15;;
72649;SDS011;61467;50.674;4.618;2023-02-13T03:08:56;25.75;;;11.95;;
72649;SDS011;61467;50.674;4.618;2023-02-13T03:11:43;24.88;;;11.57;;
72649;SDS011;61467;50.674;4.618;2023-02-13T03:14:32;23.38;;;12.27;;
72649;SDS011;61467;50.674;4.618;2023-02-13T03:16:59;24.33;;;11.70;;
72649;SDS011;61467;50.674;4.618;2023-02-13T03:19:51;22.55;;;11.27;;
72649;SDS011;61467;50.674;4.618;2023-02-13T03:22:44;23.52;;;11.45;;
72649;SDS011;61467;50.674;4.618;2023-02-13T03:25:25;23.52;;;10.98;;
72649;SDS011;61467;50.674;4.618;2023-02-13T03:28:00;23.33;;;10.80;;
72649;SDS011;61467;50.674;4.618;2023-02-13T03:30:56;23.33;;;11.10;;
72649;SDS011;61467;50.674;4.618;2023-02-13T03:33:29;25.42;;;10.88;;
72649;SDS011;61467;50.674;4.618;2023-02-13T03:36:11;23.85;;;10.82;;
72649;SDS011;61467;50.674;4.618;2023-02-13T03:39:02;25.60;;;11.63;;
72649;SDS011;61467;50.674;4.618;2023-02-13T03:41:35;26.38;;;13.40;;
72649;SDS011;61467;50.674;4.618;2023-02-13T03:44:08;25.17;;;11.47;;
72649;SDS011;61467;50.674;4.618;2023-02-13T03:46:40;22.13;;;10.98;;
72649;SDS011;61467;50.674;4.618;2023-02-13T03:49:11;24.08;;;11.93;;
72649;SDS011;61467;50.674;4.618;2023-02-13T03:52:01;25.15;;;12.50;;
72649;SDS011;61467;50.674;4.618;2023-02-13T03:54:35;22.73;;;11.93;;
72649;SDS011;61467;50.674;4.618;2023-02-13T03:57:25;24.07;;;11.47;;
72649;SDS011;61467;50.674;4.618;2023-02-13T04:00:13;28.52;;;12.65;;
72649;SDS011;61467;50.674;4.618;2023-02-13T04:02:43;25.27;;;11.27;;
72649;SDS011;61467;50.674;4.618;2023-02-13T04:05:17;23.65;;;10.57;;
72649;SDS011;61467;50.674;4.618;2023-02-13T04:07:49;22.65;;;10.85;;
72649;SDS011;61467;50.674;4.618;2023-02-13T04:10:18;23.73;;;11.03;;
72649;SDS011;61467;50.674;4.618;2023-02-13T04:12:47;23.02;;;10.43;;
72649;SDS011;61467;50.674;4.618;2023-02-13T04:15:19;22.05;;;10.00;;
72649;SDS011;61467;50.674;4.618;2023-02-13T04:17:52;23.58;;;10.90;;
72649;SDS011;61467;50.674;4.618;2023-02-13T04:20:25;25.25;;;11.07;;
72649;SDS011;61467;50.674;4.618;2023-02-13T04:22:52;22.07;;;10.60;;
72649;SDS011;61467;50.674;4.618;2023-02-13T04:25:21;21.73;;;10.60;;
72649;SDS011;61467;50.674;4.618;2023-02-13T04:27:48;23.20;;;9.93;;
72649;SDS011;61467;50.674;4.618;2023-02-13T04:30:15;22.95;;;10.82;;
72649;SDS011;61467;50.674;4.618;2023-02-13T04:32:41;23.50;;;10.85;;
72649;SDS011;61467;50.674;4.618;2023-02-13T04:35:08;21.30;;;9.93;;
72649;SDS011;61467;50.674;4.618;2023-02-13T04:37:38;21.30;;;10.27;;
72649;SDS011;61467;50.674;4.618;2023-02-13T04:40:05;23.55;;;10.50;;
72649;SDS011;61467;50.674;4.618;2023-02-13T04:42:34;24.20;;;10.10;;
72649;SDS011;61467;50.674;4.618;2023-02-13T04:45:00;22.55;;;9.77;;
72649;SDS011;61467;50.674;4.618;2023-02-13T04:47:27;19.37;;;9.77;;
72649;SDS011;61467;50.674;4.618;2023-02-13T04:49:54;23.85;;;10.15;;
72649;SDS011;61467;50.674;4.618;2023-02-13T04:52:21;18.50;;;9.43;;
72649;SDS011;61467;50.674;4.618;2023-02-13T04:54:48;21.52;;;9.30;;
72649;SDS011;61467;50.674;4.618;2023-02-13T04:57:15;23.42;;;9.88;;
72649;SDS011;61467;50.674;4.618;2023-02-13T04:59:43;22.27;;;9.53;;
72649;SDS011;61467;50.674;4.618;2023-02-13T05:02:10;24.63;;;9.85;;
72649;SDS011;61467;50.674;4.618;2023-02-13T05:04:37;23.30;;;10.70;;
72649;SDS011;61467;50.674;4.618;2023-02-13T05:07:03;23.25;;;9.95;;
72649;SDS011;61467;50.674;4.618;2023-02-13T05:09:30;24.88;;;11.23;;
72649;SDS011;61467;50.674;4.618;2023-02-13T05:11:57;24.60;;;9.90;;
72649;SDS011;61467;50.674;4.618;2023-02-13T05:14:24;22.88;;;9.27;;
72649;SDS011;61467;50.674;4.618;2023-02-13T05:16:52;19.98;;;9.95;;
72649;SDS011;61467;50.674;4.618;2023-02-13T05:19:19;21.48;;;10.00;;
72649;SDS011;61467;50.674;4.618;2023-02-13T05:21:46;19.77;;;9.32;;
72649;SDS011;61467;50.674;4.618;2023-02-13T05:24:30;20.30;;;9.57;;
72649;SDS011;61467;50.674;4.618;2023-02-13T05:26:57;22.92;;;10.05;;
72649;SDS011;61467;50.674;4.618;2023-02-13T05:29:24;21.35;;;10.02;;
72649;SDS011;61467;50.674;4.618;2023-02-13T05:31:53;22.15;;;9.68;;
72649;SDS011;61467;50.674;4.618;2023-02-13T05:34:21;23.27;;;10.10;;
72649;SDS011;61467;50.674;4.618;2023-02-13T05:36:49;20.77;;;9.87;;
72649;SDS011;61467;50.674;4.618;2023-02-13T05:39:17;21.02;;;9.50;;
72649;SDS011;61467;50.674;4.618;2023-02-13T05:41:44;21.90;;;9.82;;
72649;SDS011;61467;50.674;4.618;2023-02-13T05:44:12;23.20;;;10.02;;
72649;SDS011;61467;50.674;4.618;2023-02-13T05:46:39;22.65;;;9.55;;
72649;SDS011;61467;50.674;4.618;2023-02-13T05:49:08;23.80;;;10.77;;
72649;SDS011;61467;50.674;4.618;2023-02-13T05:51:37;21.95;;;9.30;;
72649;SDS011;61467;50.674;4.618;2023-02-13T05:54:04;24.25;;;10.60;;
72649;SDS011;61467;50.674;4.618;2023-02-13T05:56:30;19.75;;;9.77;;
72649;SDS011;61467;50.674;4.618;2023-02-13T05:58:57;20.85;;;8.55;;
72649;SDS011;61467;50.674;4.618;2023-02-13T06:01:24;18.03;;;9.53;;
72649;SDS011;61467;50.674;4.618;2023-02-13T06:03:51;23.83;;;8.88;;
72649;SDS011;61467;50.674;4.618;2023-02-13T06:06:19;22.85;;;10.20;;
72649;SDS011;61467;50.674;4.618;2023-02-13T06:08:46;23.38;;;10.77;;
72649;SDS011;61467;50.674;4.618;2023-02-13T06:11:13;23.05;;;10.35;;
72649;SDS011;61467;50.674;4.618;2023-02-13T06:13:40;22.70;;;10.50;;
72649;SDS011;61467;50.674;4.618;2023-02-13T06:16:07;23.88;;;10.45;;
72649;SDS011;61467;50.674;4.618;2023-02-13T06:18:34;24.92;;;9.80;;
72649;SDS011;61467;50.674;4.618;2023-02-13T06:21:02;21.27;;;9.90;;
72649;SDS011;61467;50.674;4.618;2023-02-13T06:23:31;23.20;;;9.85;;
72649;SDS011;61467;50.674;4.618;2023-02-13T06:26:00;22.10;;;9.83;;
72649;SDS011;61467;50.674;4.618;2023-02-13T06:28:27;25.85;;;11.45;;
72649;SDS011;61467;50.674;4.618;2023-02-13T06:30:54;21.95;;;10.63;;
72649;SDS011;61467;50.674;4.618;2023-02-13T06:33:21;22.55;;;9.85;;
72649;SDS011;61467;50.674;4.618;2023-02-13T06:35:48;24.52;;;10.63;;
72649;SDS011;61467;50.674;4.618;2023-02-13T06:38:15;21.93;;;10.73;;
72649;SDS011;61467;50.674;4.618;2023-02-13T06:40:44;20.52;;;9.93;;
72649;SDS011;61467;50.674;4.618;2023-02-13T06:43:11;24.67;;;10.85;;
72649;SDS011;61467;50.674;4.618;2023-02-13T06:45:38;26.92;;;10.85;;
72649;SDS011;61467;50.674;4.618;2023-02-13T06:48:05;26.85;;;12.10;;
72649;SDS011;61467;50.674;4.618;2023-02-13T06:50:32;26.87;;;11.83;;
72649;SDS011;61467;50.674;4.618;2023-02-13T06:53:00;28.98;;;11.82;;
72649;SDS011;61467;50.674;4.618;2023-02-13T06:55:27;27.35;;;12.13;;
72649;SDS011;61467;50.674;4.618;2023-02-13T06:57:55;26.00;;;12.02;;
72649;SDS011;61467;50.674;4.618;2023-02-13T07:00:22;31.67;;;12.68;;
72649;SDS011;61467;50.674;4.618;2023-02-13T07:02:48;26.97;;;11.93;;
72649;SDS011;61467;50.674;4.618;2023-02-13T07:05:16;29.17;;;12.70;;
72649;SDS011;61467;50.674;4.618;2023-02-13T07:07:44;26.52;;;11.27;;
72649;SDS011;61467;50.674;4.618;2023-02-13T07:10:12;25.20;;;10.18;;
72649;SDS011;61467;50.674;4.618;2023-02-13T07:12:39;25.10;;;10.23;;
72649;SDS011;61467;50.674;4.618;2023-02-13T07:15:08;23.23;;;9.60;;
72649;SDS011;61467;50.674;4.618;2023-02-13T07:17:35;24.23;;;10.05;;
72649;SDS011;61467;50.674;4.618;2023-02-13T07:20:02;25.15;;;10.73;;
72649;SDS011;61467;50.674;4.618;2023-02-13T07:22:29;24.60;;;9.85;;
72649;SDS011;61467;50.674;4.618;2023-02-13T07:24:57;24.73;;;10.20;;
72649;SDS011;61467;50.674;4.618;2023-02-13T07:27:25;23.40;;;9.67;;
72649;SDS011;61467;50.674;4.618;2023-02-13T07:29:53;22.60;;;8.98;;
72649;SDS011;61467;50.674;4.618;2023-02-13T07:32:23;22.80;;;9.82;;
72649;SDS011;61467;50.674;4.618;2023-02-13T07:34:51;24.90;;;9.73;;
72649;SDS011;61467;50.674;4.618;2023-02-13T07:37:18;23.38;;;10.10;;
72649;SDS011;61467;50.674;4.618;2023-02-13T07:39:45;23.77;;;10.03;;
72649;SDS011;61467;50.674;4.618;2023-02-13T07:42:12;40.33;;;17.70;;
72649;SDS011;61467;50.674;4.618;2023-02-13T07:44:39;26.48;;;11.65;;
72649;SDS011;61467;50.674;4.618;2023-02-13T07:47:05;23.05;;;9.90;;
72649;SDS011;61467;50.674;4.618;2023-02-13T07:49:34;22.17;;;9.95;;
72649;SDS011;61467;50.674;4.618;2023-02-13T07:52:02;23.77;;;10.43;;
72649;SDS011;61467;50.674;4.618;2023-02-13T07:54:30;22.58;;;10.52;;
72649;SDS011;61467;50.674;4.618;2023-02-13T07:56:56;22.52;;;10.85;;
72649;SDS011;61467;50.674;4.618;2023-02-13T07:59:23;24.65;;;10.48;;
72649;SDS011;61467;50.674;4.618;2023-02-13T08:01:50;26.35;;;10.77;;
72649;SDS011;61467;50.674;4.618;2023-02-13T08:04:17;24.27;;;10.13;;
72649;SDS011;61467;50.674;4.618;2023-02-13T08:06:45;24.77;;;10.73;;
72649;SDS011;61467;50.674;4.618;2023-02-13T08:09:16;26.42;;;10.57;;
72649;SDS011;61467;50.674;4.618;2023-02-13T08:12:03;21.60;;;9.50;;
72649;SDS011;61467;50.674;4.618;2023-02-13T08:14:32;24.33;;;10.35;;
72649;SDS011;61467;50.674;4.618;2023-02-13T08:16:59;26.50;;;10.80;;
72649;SDS011;61467;50.674;4.618;2023-02-13T08:19:26;20.35;;;9.45;;
72649;SDS011;61467;50.674;4.618;2023-02-13T08:21:54;20.30;;;9.48;;
72649;SDS011;61467;50.674;4.618;2023-02-13T08:24:21;23.48;;;8.52;;
72649;SDS011;61467;50.674;4.618;2023-02-13T08:26:48;19.25;;;9.18;;
72649;SDS011;61467;50.674;4.618;2023-02-13T08:29:15;20.40;;;8.53;;
72649;SDS011;61467;50.674;4.618;2023-02-13T08:31:41;23.20;;;9.25;;
72649;SDS011;61467;50.674;4.618;2023-02-13T08:34:08;18.23;;;8.43;;
72649;SDS011;61467;50.674;4.618;2023-02-13T08:36:35;19.73;;;8.48;;
72649;SDS011;61467;50.674;4.618;2023-02-13T08:39:07;22.80;;;9.00;;
72649;SDS011;61467;50.674;4.618;2023-02-13T08:41:34;20.63;;;9.10;;
72649;SDS011;61467;50.674;4.618;2023-02-13T08:44:01;21.35;;;9.20;;
72649;SDS011;61467;50.674;4.618;2023-02-13T08:46:28;21.67;;;9.00;;
72649;SDS011;61467;50.674;4.618;2023-02-13T08:48:55;19.98;;;8.55;;
72649;SDS011;61467;50.674;4.618;2023-02-13T08:51:21;21.38;;;9.27;;
72649;SDS011;61467;50.674;4.618;2023-02-13T08:53:48;18.87;;;8.03;;
72649;SDS011;61467;50.674;4.618;2023-02-13T08:56:17;19.00;;;9.07;;
72649;SDS011;61467;50.674;4.618;2023-02-13T08:58:46;20.50;;;9.05;;
72649;SDS011;61467;50.674;4.618;2023-02-13T09:01:14;18.63;;;8.82;;
72649;SDS011;61467;50.674;4.618;2023-02-13T09:03:40;19.33;;;8.40;;
72649;SDS011;61467;50.674;4.618;2023-02-13T09:06:07;19.87;;;8.83;;
72649;SDS011;61467;50.674;4.618;2023-02-13T09:08:34;18.90;;;8.32;;
72649;SDS011;61467;50.674;4.618;2023-02-13T09:11:02;18.35;;;8.77;;
72649;SDS011;61467;50.674;4.618;2023-02-13T09:13:33;17.85;;;8.40;;
72649;SDS011;61467;50.674;4.618;2023-02-13T09:16:01;21.05;;;9.25;;
72649;SDS011;61467;50.674;4.618;2023-02-13T09:18:29;20.30;;;8.77;;
72649;SDS011;61467;50.674;4.618;2023-02-13T09:20:57;22.10;;;9.77;;
72649;SDS011;61467;50.674;4.618;2023-02-13T09:23:25;20.65;;;9.57;;
72649;SDS011;61467;50.674;4.618;2023-02-13T09:25:53;22.55;;;9.73;;
72649;SDS011;61467;50.674;4.618;2023-02-13T09:28:19;19.95;;;9.30;;
72649;SDS011;61467;50.674;4.618;2023-02-13T09:30:48;19.50;;;8.60;;
72649;SDS011;61467;50.674;4.618;2023-02-13T09:33:15;19.25;;;9.85;;
72649;SDS011;61467;50.674;4.618;2023-02-13T09:35:42;21.38;;;10.23;;
72649;SDS011;61467;50.674;4.618;2023-02-13T09:38:11;20.38;;;9.93;;
72649;SDS011;61467;50.674;4.618;2023-02-13T09:40:40;21.52;;;10.93;;
72649;SDS011;61467;50.674;4.618;2023-02-13T09:43:12;20.60;;;11.07;;
72649;SDS011;61467;50.674;4.618;2023-02-13T09:45:41;20.98;;;10.55;;
72649;SDS011;61467;50.674;4.618;2023-02-13T09:48:14;22.10;;;10.70;;
72649;SDS011;61467;50.674;4.618;2023-02-13T09:50:46;22.20;;;10.45;;
72649;SDS011;61467;50.674;4.618;2023-02-13T09:53:15;19.50;;;9.73;;
72649;SDS011;61467;50.674;4.618;2023-02-13T09:55:48;18.13;;;9.53;;
72649;SDS011;61467;50.674;4.618;2023-02-13T09:58:26;18.35;;;8.48;;
72649;SDS011;61467;50.674;4.618;2023-02-13T10:01:03;19.00;;;9.20;;
72649;SDS011;61467;50.674;4.618;2023-02-13T10:03:42;17.63;;;9.43;;
72649;SDS011;61467;50.674;4.618;2023-02-13T10:06:13;20.17;;;9.80;;
72649;SDS011;61467;50.674;4.618;2023-02-13T10:08:51;18.33;;;9.30;;
72649;SDS011;61467;50.674;4.618;2023-02-13T10:11:40;21.95;;;10.25;;
72649;SDS011;61467;50.674;4.618;2023-02-13T10:14:17;18.75;;;8.95;;
72649;SDS011;61467;50.674;4.618;2023-02-13T10:16:49;19.52;;;9.32;;
72649;SDS011;61467;50.674;4.618;2023-02-13T10:19:25;19.17;;;9.70;;
72649;SDS011;61467;50.674;4.618;2023-02-13T10:21:59;19.33;;;8.40;;
72649;SDS011;61467;50.674;4.618;2023-02-13T10:24:31;16.75;;;9.38;;
72649;SDS011;61467;50.674;4.618;2023-02-13T10:27:04;16.83;;;8.45;;
72649;SDS011;61467;50.674;4.618;2023-02-13T10:29:44;17.60;;;7.95;;
72649;SDS011;61467;50.674;4.618;2023-02-13T10:32:40;17.40;;;8.23;;
72649;SDS011;61467;50.674;4.618;2023-02-13T10:35:17;17.10;;;8.87;;
72649;SDS011;61467;50.674;4.618;2023-02-13T10:37:47;15.40;;;7.43;;
72649;SDS011;61467;50.674;4.618;2023-02-13T10:40:18;14.85;;;7.80;;
72649;SDS011;61467;50.674;4.618;2023-02-13T10:42:45;17.17;;;8.60;;
72649;SDS011;61467;50.674;4.618;2023-02-13T10:45:22;17.02;;;7.97;;
72649;SDS011;61467;50.674;4.618;2023-02-13T10:48:13;16.60;;;8.30;;
72649;SDS011;61467;50.674;4.618;2023-02-13T10:50:57;15.38;;;8.02;;
72649;SDS011;61467;50.674;4.618;2023-02-13T10:53:30;15.10;;;8.25;;
72649;SDS011;61467;50.674;4.618;2023-02-13T10:56:14;14.63;;;7.68;;
72649;SDS011;61467;50.674;4.618;2023-02-13T10:58:57;15.18;;;7.55;;
72649;SDS011;61467;50.674;4.618;2023-02-13T11:01:44;15.67;;;7.43;;
72649;SDS011;61467;50.674;4.618;2023-02-13T11:04:16;14.43;;;7.35;;
72649;SDS011;61467;50.674;4.618;2023-02-13T11:06:47;13.88;;;7.22;;
72649;SDS011;61467;50.674;4.618;2023-02-13T11:09:20;18.10;;;7.50;;
72649;SDS011;61467;50.674;4.618;2023-02-13T11:11:47;16.77;;;7.78;;
72649;SDS011;61467;50.674;4.618;2023-02-13T11:14:14;14.67;;;7.53;;
72649;SDS011;61467;50.674;4.618;2023-02-13T11:16:46;15.23;;;7.57;;
72649;SDS011;61467;50.674;4.618;2023-02-13T11:19:19;14.38;;;7.43;;
72649;SDS011;61467;50.674;4.618;2023-02-13T11:21:53;15.30;;;7.45;;
72649;SDS011;61467;50.674;4.618;2023-02-13T11:24:23;14.20;;;7.90;;
72649;SDS011;61467;50.674;4.618;2023-02-13T11:26:52;14.23;;;7.30;;
72649;SDS011;61467;50.674;4.618;2023-02-13T11:29:24;15.15;;;7.68;;
72649;SDS011;61467;50.674;4.618;2023-02-13T11:32:06;15.73;;;8.38;;
72649;SDS011;61467;50.674;4.618;2023-02-13T11:34:44;16.35;;;7.68;;
72649;SDS011;61467;50.674;4.618;2023-02-13T11:40:19;14.37;;;7.20;;
72649;SDS011;61467;50.674;4.618;2023-02-13T11:42:54;15.45;;;7.35;;
72649;SDS011;61467;50.674;4.618;2023-02-13T11:45:22;14.10;;;7.25;;
72649;SDS011;61467;50.674;4.618;2023-02-13T11:47:51;16.05;;;7.13;;
72649;SDS011;61467;50.674;4.618;2023-02-13T11:50:21;14.05;;;7.78;;
72649;SDS011;61467;50.674;4.618;2023-02-13T11:52:55;14.63;;;7.77;;
72649;SDS011;61467;50.674;4.618;2023-02-13T11:55:25;18.20;;;7.53;;
72649;SDS011;61467;50.674;4.618;2023-02-13T11:57:55;17.25;;;8.82;;
72649;SDS011;61467;50.674;4.618;2023-02-13T12:00:27;13.88;;;7.40;;
72649;SDS011;61467;50.674;4.618;2023-02-13T12:03:01;16.88;;;8.23;;
72649;SDS011;61467;50.674;4.618;2023-02-13T12:05:29;16.13;;;7.63;;
72649;SDS011;61467;50.674;4.618;2023-02-13T12:07:58;16.58;;;7.40;;
72649;SDS011;61467;50.674;4.618;2023-02-13T12:10:28;15.43;;;7.70;;
72649;SDS011;61467;50.674;4.618;2023-02-13T12:12:58;14.77;;;7.43;;
72649;SDS011;61467;50.674;4.618;2023-02-13T12:15:38;14.80;;;7.50;;
72649;SDS011;61467;50.674;4.618;2023-02-13T12:18:08;15.50;;;7.20;;
72649;SDS011;61467;50.674;4.618;2023-02-13T12:20:42;16.17;;;7.30;;
72649;SDS011;61467;50.674;4.618;2023-02-13T12:23:22;15.55;;;7.90;;
72649;SDS011;61467;50.674;4.618;2023-02-13T12:26:00;14.73;;;7.68;;
72649;SDS011;61467;50.674;4.618;2023-02-13T12:28:40;13.57;;;7.40;;
72649;SDS011;61467;50.674;4.618;2023-02-13T12:31:34;16.03;;;7.30;;
72649;SDS011;61467;50.674;4.618;2023-02-13T12:34:29;17.23;;;8.82;;
72649;SDS011;61467;50.674;4.618;2023-02-13T12:37:18;14.48;;;7.55;;
72649;SDS011;61467;50.674;4.618;2023-02-13T12:40:01;16.25;;;7.90;;
72649;SDS011;61467;50.674;4.618;2023-02-13T12:42:42;16.48;;;7.57;;
72649;SDS011;61467;50.674;4.618;2023-02-13T12:45:23;16.53;;;7.87;;
72649;SDS011;61467;50.674;4.618;2023-02-13T12:48:15;16.35;;;7.95;;
72649;SDS011;61467;50.674;4.618;2023-02-13T12:50:55;18.58;;;7.90;;
72649;SDS011;61467;50.674;4.618;2023-02-13T12:56:44;14.60;;;7.40;;
72649;SDS011;61467;50.674;4.618;2023-02-13T12:59:21;12.97;;;6.53;;
72649;SDS011;61467;50.674;4.618;2023-02-13T13:02:05;12.85;;;6.85;;
72649;SDS011;61467;50.674;4.618;2023-02-13T13:04:59;14.82;;;7.20;;
72649;SDS011;61467;50.674;4.618;2023-02-13T13:07:44;14.95;;;6.50;;
72649;SDS011;61467;50.674;4.618;2023-02-13T13:10:34;13.77;;;6.93;;
72649;SDS011;61467;50.674;4.618;2023-02-13T13:13:13;13.13;;;6.67;;
72649;SDS011;61467;50.674;4.618;2023-02-13T13:15:56;14.82;;;6.80;;
72649;SDS011;61467;50.674;4.618;2023-02-13T13:18:35;13.48;;;6.82;;
72649;SDS011;61467;50.674;4.618;2023-02-13T13:21:13;14.57;;;7.18;;
72649;SDS011;61467;50.674;4.618;2023-02-13T13:23:51;12.63;;;6.45;;
72649;SDS011;61467;50.674;4.618;2023-02-13T13:26:25;12.70;;;6.27;;
72649;SDS011;61467;50.674;4.618;2023-02-13T13:29:00;13.77;;;6.63;;
72649;SDS011;61467;50.674;4.618;2023-02-13T13:31:31;13.75;;;6.68;;
72649;SDS011;61467;50.674;4.618;2023-02-13T13:34:05;14.75;;;6.60;;
72649;SDS011;61467;50.674;4.618;2023-02-13T13:36:40;14.73;;;6.70;;
72649;SDS011;61467;50.674;4.618;2023-02-13T13:39:15;12.80;;;6.50;;
72649;SDS011;61467;50.674;4.618;2023-02-13T13:41:53;16.60;;;6.72;;
72649;SDS011;61467;50.674;4.618;2023-02-13T13:44:39;13.50;;;6.50;;
72649;SDS011;61467;50.674;4.618;2023-02-13T13:47:18;13.13;;;6.47;;
72649;SDS011;61467;50.674;4.618;2023-02-13T13:49:52;13.73;;;6.25;;
72649;SDS011;61467;50.674;4.618;2023-02-13T13:52:22;10.90;;;5.80;;
72649;SDS011;61467;50.674;4.618;2023-02-13T13:54:51;11.27;;;5.35;;
72649;SDS011;61467;50.674;4.618;2023-02-13T13:57:19;12.00;;;5.53;;
72649;SDS011;61467;50.674;4.618;2023-02-13T13:59:55;10.85;;;5.38;;
72649;SDS011;61467;50.674;4.618;2023-02-13T14:05:21;10.80;;;4.87;;
72649;SDS011;61467;50.674;4.618;2023-02-13T14:07:54;11.88;;;5.80;;
72649;SDS011;61467;50.674;4.618;2023-02-13T14:13:33;10.02;;;5.43;;
72649;SDS011;61467;50.674;4.618;2023-02-13T14:16:04;11.43;;;5.30;;
72649;SDS011;61467;50.674;4.618;2023-02-13T14:18:34;11.20;;;5.53;;
72649;SDS011;61467;50.674;4.618;2023-02-13T14:21:03;11.32;;;5.28;;
72649;SDS011;61467;50.674;4.618;2023-02-13T14:23:42;11.05;;;5.60;;
72649;SDS011;61467;50.674;4.618;2023-02-13T14:32:05;11.67;;;5.90;;
72649;SDS011;61467;50.674;4.618;2023-02-13T14:34:41;12.23;;;4.95;;
72649;SDS011;61467;50.674;4.618;2023-02-13T14:37:19;12.43;;;5.43;;
72649;SDS011;61467;50.674;4.618;2023-02-13T14:42:55;14.70;;;5.68;;
72649;SDS011;61467;50.674;4.618;2023-02-13T14:45:28;15.83;;;7.40;;
72649;SDS011;61467;50.674;4.618;2023-02-13T14:48:03;14.73;;;6.78;;
72649;SDS011;61467;50.674;4.618;2023-02-13T14:50:38;13.43;;;6.95;;
72649;SDS011;61467;50.674;4.618;2023-02-13T14:53:16;15.63;;;6.72;;
72649;SDS011;61467;50.674;4.618;2023-02-13T14:55:47;17.05;;;7.32;;
72649;SDS011;61467;50.674;4.618;2023-02-13T14:58:19;14.07;;;6.77;;
72649;SDS011;61467;50.674;4.618;2023-02-13T15:00:54;15.93;;;7.07;;
72649;SDS011;61467;50.674;4.618;2023-02-13T15:03:28;14.10;;;7.03;;
72649;SDS011;61467;50.674;4.618;2023-02-13T15:06:02;16.52;;;7.78;;
72649;SDS011;61467;50.674;4.618;2023-02-13T15:08:37;15.45;;;6.68;;
72649;SDS011;61467;50.674;4.618;2023-02-13T15:11:11;15.10;;;7.30;;
72649;SDS011;61467;50.674;4.618;2023-02-13T15:14:13;14.70;;;7.32;;
72649;SDS011;61467;50.674;4.618;2023-02-13T15:16:47;14.60;;;7.47;;
72649;SDS011;61467;50.674;4.618;2023-02-13T15:19:18;13.98;;;6.75;;
72649;SDS011;61467;50.674;4.618;2023-02-13T15:21:49;15.05;;;7.43;;
72649;SDS011;61467;50.674;4.618;2023-02-13T15:24:18;16.30;;;7.33;;